Time;durP1;ratioP1;P1;durP2;ratioP2;P2;SDS_P1;SDS_P2;PMS_P1;PMS_P2;Temp;Humidity;BMP_temperature;BMP_pressure;BME280_temperature;BME280_humidity;BME280_pressure;Samples;Min_cycle;Max_cycle;Signal;HPM_P1;HPM_P2
2021/11/04 00:01:28;;;;;;;20.23;13.17;;;;;;;5.39;100.00;99421.47;4997631;28;20670;-71
2021/11/04 00:03:54;;;;;;;22.57;12.03;;;;;;;5.39;100.00;99426.66;5026048;28;20199;-71
2021/11/04 00:06:20;;;;;;;21.57;13.37;;;;;;;5.40;100.00;99418.03;5029863;28;20210;-71
2021/11/04 00:08:47;;;;;;;18.73;12.57;;;;;;;5.41;100.00;99403.34;5024590;28;20226;-71
2021/11/04 00:11:15;;;;;;;22.03;13.43;;;;;;;5.42;100.00;99397.31;5029849;28;20226;-71
2021/11/04 00:13:42;;;;;;;20.03;13.20;;;;;;;5.43;100.00;99399.00;5023903;28;20214;-71
2021/11/04 00:16:10;;;;;;;19.40;12.73;;;;;;;5.42;100.00;99398.16;5001816;28;20571;-70
2021/11/04 00:18:37;;;;;;;20.33;12.53;;;;;;;5.40;100.00;99384.41;5029616;28;20213;-70
2021/11/04 00:21:04;;;;;;;21.33;12.70;;;;;;;5.38;100.00;99381.03;5022462;28;20223;-71
2021/11/04 00:23:30;;;;;;;21.27;12.53;;;;;;;5.37;100.00;99371.56;5030064;28;20207;-71
2021/11/04 00:25:57;;;;;;;24.00;13.00;;;;;;;5.36;100.00;99376.75;5024028;28;20208;-71
2021/11/04 00:28:25;;;;;;;20.50;13.27;;;;;;;5.33;100.00;99372.53;5032121;28;20218;-71
2021/11/04 00:30:51;;;;;;;22.37;12.83;;;;;;;5.32;100.00;99374.25;5024353;28;20227;-71
2021/11/04 00:33:18;;;;;;;20.13;13.40;;;;;;;5.32;100.00;99371.66;5025533;28;20548;-71
2021/11/04 00:35:44;;;;;;;21.50;12.90;;;;;;;5.30;100.00;99370.00;5025734;28;20215;-71
2021/11/04 00:38:10;;;;;;;21.03;13.10;;;;;;;5.29;100.00;99381.22;5028030;28;20211;-71
2021/11/04 00:40:37;;;;;;;20.70;13.73;;;;;;;5.27;100.00;99385.59;5020280;28;20230;-71
2021/11/04 00:43:04;;;;;;;20.20;11.97;;;;;;;5.27;100.00;99375.25;4997980;28;20203;-71
2021/11/04 00:45:32;;;;;;;20.83;13.23;;;;;;;5.26;100.00;99373.56;5022311;28;20226;-71
2021/11/04 00:47:58;;;;;;;23.47;14.67;;;;;;;5.25;100.00;99377.03;5023362;28;20206;-71
2021/11/04 00:50:26;;;;;;;20.17;13.37;;;;;;;5.24;100.00;99391.69;5024933;28;20223;-71
2021/11/04 00:52:53;;;;;;;18.43;12.17;;;;;;;5.26;100.00;99394.25;5022095;28;20254;-71
2021/11/04 00:55:20;;;;;;;20.90;12.47;;;;;;;5.25;100.00;99382.19;5029973;28;20203;-71
2021/11/04 00:57:48;;;;;;;21.23;12.97;;;;;;;5.26;100.00;99376.16;5021185;28;20212;-71
2021/11/04 01:00:15;;;;;;;21.17;13.30;;;;;;;5.25;100.00;99370.13;5026841;28;20801;-71
2021/11/04 01:02:42;;;;;;;21.60;12.37;;;;;;;5.25;100.00;99372.69;5020280;28;20211;-71
2021/11/04 01:05:09;;;;;;;21.27;12.87;;;;;;;5.22;100.00;99377.94;5016738;28;20203;-71
2021/11/04 01:07:35;;;;;;;21.07;11.73;;;;;;;5.22;100.00;99370.19;5008387;28;20341;-71
2021/11/04 01:10:02;;;;;;;23.47;13.13;;;;;;;5.22;100.00;99367.59;5019518;28;20302;-71
2021/11/04 01:12:28;;;;;;;20.63;13.13;;;;;;;5.22;100.00;99367.59;5020859;28;20224;-71
2021/11/04 01:14:55;;;;;;;18.47;13.13;;;;;;;5.21;100.00;99360.75;5022722;28;20204;-71
2021/11/04 01:17:21;;;;;;;24.90;13.33;;;;;;;5.22;100.00;99353.84;5022661;28;20208;-71
2021/11/04 01:19:49;;;;;;;20.90;13.30;;;;;;;5.21;100.00;99355.59;5019993;28;20219;-71
2021/11/04 01:22:16;;;;;;;21.60;12.80;;;;;;;5.21;100.00;99350.41;5026126;28;20227;-71
2021/11/04 01:24:43;;;;;;;18.60;13.17;;;;;;;5.21;100.00;99341.81;5023998;28;20206;-71
2021/11/04 01:27:09;;;;;;;20.33;13.73;;;;;;;5.19;100.00;99339.28;5021398;28;20546;-71
2021/11/04 01:29:36;;;;;;;22.37;13.63;;;;;;;5.20;100.00;99327.19;5017753;28;20208;-71
2021/11/04 01:32:02;;;;;;;22.87;13.80;;;;;;;5.19;100.00;99325.47;5025676;28;20226;-71
2021/11/04 01:34:28;;;;;;;21.27;13.07;;;;;;;5.18;100.00;99310.88;5019407;28;20685;-71
2021/11/04 01:36:56;;;;;;;21.23;13.13;;;;;;;5.18;100.00;99305.72;5025892;28;20207;-71
2021/11/04 01:39:23;;;;;;;22.90;13.60;;;;;;;5.18;100.00;99301.38;5023030;28;20225;-70
2021/11/04 01:41:51;;;;;;;22.13;14.13;;;;;;;5.18;100.00;99288.47;5028546;28;20331;-71
2021/11/04 01:44:18;;;;;;;31.07;17.77;;;;;;;5.15;100.00;99277.34;5021508;28;20199;-71
2021/11/04 01:46:44;;;;;;;23.87;16.13;;;;;;;5.17;100.00;99267.81;5019122;28;20211;-71
2021/11/04 01:49:11;;;;;;;23.33;14.37;;;;;;;5.17;100.00;99273.88;5021508;28;20202;-71
2021/11/04 01:51:37;;;;;;;22.40;13.90;;;;;;;5.17;100.00;99279.03;5019420;28;20227;-71
2021/11/04 01:54:05;;;;;;;20.47;13.63;;;;;;;5.19;100.00;99291.88;5017847;28;20203;-71
2021/11/04 01:56:32;;;;;;;24.10;14.73;;;;;;;5.19;100.00;99295.34;5030210;28;20207;-71
2021/11/04 01:58:58;;;;;;;22.23;14.63;;;;;;;5.20;100.00;99291.84;5021000;28;20200;-71
2021/11/04 02:01:24;;;;;;;21.33;13.57;;;;;;;5.20;100.00;99278.94;5003616;28;20230;-71
2021/11/04 02:03:59;;;;;;;25.83;13.47;;;;;;;5.22;100.00;99279.72;5018983;28;20208;-71
2021/11/04 02:06:32;;;;;;;21.97;13.40;;;;;;;5.24;100.00;99280.56;5023015;28;20217;-71
2021/11/04 02:09:05;;;;;;;22.30;13.53;;;;;;;5.25;100.00;99271.91;5019105;28;20199;-70
2021/11/04 02:11:35;;;;;;;22.20;13.27;;;;;;;5.26;100.00;99260.69;5019776;28;20224;-71
2021/11/04 02:14:07;;;;;;;20.93;13.10;;;;;;;5.26;100.00;99252.94;5025905;28;20197;-71
2021/11/04 02:16:34;;;;;;;20.63;12.83;;;;;;;5.28;100.00;99252.91;5020778;28;20216;-71
2021/11/04 02:19:13;;;;;;;22.80;13.90;;;;;;;5.26;100.00;99257.28;5026883;28;20226;-71
2021/11/04 02:21:45;;;;;;;22.97;14.33;;;;;;;5.23;100.00;99258.19;5020144;28;20228;-71
2021/11/04 02:24:20;;;;;;;19.90;12.67;;;;;;;5.24;100.00;99252.16;5015453;28;20572;-71
2021/11/04 02:26:49;;;;;;;24.80;14.50;;;;;;;5.24;100.00;99238.34;5005212;28;20237;-71
2021/11/04 02:29:19;;;;;;;23.37;13.83;;;;;;;5.25;100.00;99242.66;5025340;28;20227;-70
2021/11/04 02:31:46;;;;;;;20.83;13.37;;;;;;;5.25;100.00;99242.66;5025598;28;20677;-71
2021/11/04 02:34:15;;;;;;;24.30;14.10;;;;;;;5.26;100.00;99239.19;5022025;28;20213;-71
2021/11/04 02:36:42;;;;;;;24.43;13.47;;;;;;;5.27;100.00;99238.28;5027628;28;20291;-71
2021/11/04 02:39:09;;;;;;;25.00;13.87;;;;;;;5.28;100.00;99238.25;5020376;28;20730;-71
2021/11/04 02:41:36;;;;;;;22.63;14.17;;;;;;;5.30;100.00;99241.63;5029972;28;20223;-71
2021/11/04 02:44:08;;;;;;;24.97;14.63;;;;;;;5.31;100.00;99239.88;5023552;28;20260;-71
2021/11/04 02:46:35;;;;;;;24.20;14.20;;;;;;;5.36;100.00;99242.34;5018004;28;20211;-71
2021/11/04 02:49:02;;;;;;;25.53;14.97;;;;;;;5.38;100.00;99228.53;5020783;28;20212;-71
2021/11/04 02:51:29;;;;;;;26.23;15.00;;;;;;;5.40;100.00;99216.41;5021801;28;20228;-70
2021/11/04 02:53:55;;;;;;;25.80;15.20;;;;;;;5.41;100.00;99223.25;5014677;28;20297;-71
2021/11/04 02:56:21;;;;;;;22.10;14.23;;;;;;;5.39;100.00;99209.53;5016381;28;20215;-71
2021/11/04 02:58:48;;;;;;;25.07;15.17;;;;;;;5.37;100.00;99194.97;5024113;28;20192;-71
2021/11/04 03:01:16;;;;;;;24.30;14.93;;;;;;;5.36;100.00;99191.50;5002903;28;20261;-72
2021/11/04 03:03:42;;;;;;;22.70;14.40;;;;;;;5.35;100.00;99192.41;5025862;28;20661;-71
2021/11/04 03:06:09;;;;;;;25.43;15.50;;;;;;;5.33;100.00;99183.84;5024496;28;20211;-71
2021/11/04 03:08:35;;;;;;;23.17;14.80;;;;;;;5.32;100.00;99176.97;5023928;28;20199;-71
2021/11/04 03:11:02;;;;;;;21.13;14.47;;;;;;;5.30;100.00;99176.19;5027510;28;20439;-71
2021/11/04 03:13:28;;;;;;;23.63;14.17;;;;;;;5.27;100.00;99174.50;5025395;28;20251;-71
2021/11/04 03:15:58;;;;;;;20.90;13.40;;;;;;;5.28;100.00;99172.78;5026075;28;20210;-71
2021/11/04 03:18:27;;;;;;;23.03;14.93;;;;;;;5.27;100.00;99163.34;5023962;28;20203;-71
2021/11/04 03:20:54;;;;;;;20.00;13.77;;;;;;;5.28;100.00;99167.63;5022830;28;20590;-71
2021/11/04 03:23:21;;;;;;;21.40;13.47;;;;;;;5.23;100.00;99162.56;5023827;28;20207;-71
2021/11/04 03:25:48;;;;;;;23.23;14.10;;;;;;;5.22;100.00;99162.59;5015278;28;20245;-70
2021/11/04 03:28:15;;;;;;;25.23;14.40;;;;;;;5.20;100.00;99157.47;5019451;28;20207;-70
2021/11/04 03:30:42;;;;;;;25.27;14.93;;;;;;;5.19;100.00;99150.63;5027172;28;20315;-71
2021/11/04 03:33:10;;;;;;;22.97;14.23;;;;;;;5.21;100.00;99153.19;5021373;28;20203;-71
2021/11/04 03:35:38;;;;;;;26.73;15.23;;;;;;;5.22;100.00;99147.09;5022738;28;20206;-71
2021/11/04 03:38:08;;;;;;;28.00;16.40;;;;;;;5.24;100.00;99155.66;5025739;28;20215;-71
2021/11/04 03:40:35;;;;;;;25.03;13.47;;;;;;;5.26;100.00;99154.75;5021934;28;20274;-71
2021/11/04 03:43:03;;;;;;;25.47;15.33;;;;;;;5.28;100.00;99154.69;5024259;28;20507;-71
2021/11/04 03:45:30;;;;;;;29.50;16.50;;;;;;;5.30;100.00;99161.50;5017561;28;20232;-71
2021/11/04 03:47:56;;;;;;;24.43;16.30;;;;;;;5.29;100.00;99158.97;5023385;28;20230;-71
2021/11/04 03:50:24;;;;;;;26.33;15.70;;;;;;;5.29;100.00;99148.63;5016227;28;20889;-71
2021/11/04 03:52:53;;;;;;;28.17;16.27;;;;;;;5.27;100.00;99153.00;5017473;28;20223;-71
2021/11/04 03:55:20;;;;;;;23.00;14.47;;;;;;;5.22;100.00;99137.59;5022145;28;20212;-71
2021/11/04 03:57:47;;;;;;;22.57;14.47;;;;;;;5.20;100.00;99139.41;5024364;28;20196;-70
2021/11/04 04:00:15;;;;;;;24.40;15.07;;;;;;;5.17;100.00;99149.84;5006675;28;20208;-71
2021/11/04 04:02:46;;;;;;;24.03;15.50;;;;;;;5.17;100.00;99156.72;5021636;28;20205;-71
2021/11/04 04:05:13;;;;;;;24.20;14.53;;;;;;;5.16;100.00;99163.63;5015435;28;20572;-71
2021/11/04 04:07:40;;;;;;;21.60;13.53;;;;;;;5.18;100.00;99166.19;5009430;28;20422;-73
2021/11/04 04:10:08;;;;;;;25.23;15.43;;;;;;;5.20;100.00;99156.66;5018106;28;20901;-71
2021/11/04 04:12:35;;;;;;;27.77;16.07;;;;;;;5.21;100.00;99154.03;5026862;28;20774;-70
2021/11/04 04:15:01;;;;;;;26.57;16.47;;;;;;;5.23;100.00;99152.22;5007035;28;20248;-70
2021/11/04 04:17:28;;;;;;;30.97;17.40;;;;;;;5.25;100.00;99153.03;5027344;28;20732;-71
2021/11/04 04:19:54;;;;;;;29.17;17.33;;;;;;;5.28;100.00;99145.19;5019869;28;20203;-71
2021/11/04 04:22:21;;;;;;;29.07;16.30;;;;;;;5.30;100.00;99137.41;5029771;28;20632;-71
2021/11/04 04:24:47;;;;;;;29.17;18.20;;;;;;;5.31;100.00;99131.34;5022200;28;20200;-71
2021/11/04 04:27:15;;;;;;;32.00;18.03;;;;;;;5.35;100.00;99127.78;5022797;28;20212;-70
2021/11/04 04:29:42;;;;;;;30.43;18.73;;;;;;;5.37;100.00;99131.19;5029787;28;20359;-71
2021/11/04 04:32:09;;;;;;;29.67;18.47;;;;;;;5.40;100.00;99131.09;5017962;28;20239;-71
2021/11/04 04:34:36;;;;;;;33.27;18.27;;;;;;;5.40;100.00;99128.50;5023196;28;20223;-71
2021/11/04 04:37:03;;;;;;;29.63;17.93;;;;;;;5.43;100.00;99125.81;5001880;28;20573;-73
2021/11/04 04:39:32;;;;;;;31.53;18.07;;;;;;;5.42;100.00;99112.97;5014181;28;20417;-73
2021/11/04 04:41:59;;;;;;;29.73;17.77;;;;;;;5.45;100.00;99110.25;5021010;28;20221;-71
2021/11/04 04:44:27;;;;;;;28.80;18.10;;;;;;;5.45;100.00;99105.09;5024687;28;20779;-71
2021/11/04 04:46:53;;;;;;;32.23;18.37;;;;;;;5.48;100.00;99094.66;5021323;28;20204;-70
2021/11/04 04:49:20;;;;;;;35.03;18.17;;;;;;;5.48;100.00;99086.91;4998977;28;20568;-71
2021/11/04 04:51:46;;;;;;;27.73;17.77;;;;;;;5.50;100.00;99086.00;5022943;28;20222;-70
2021/11/04 04:54:13;;;;;;;28.20;17.73;;;;;;;5.52;100.00;99070.41;5019661;28;20666;-71
2021/11/04 04:56:39;;;;;;;29.10;17.93;;;;;;;5.54;100.00;99060.91;5020976;28;20208;-70
2021/11/04 04:59:06;;;;;;;31.53;17.67;;;;;;;5.56;100.00;99053.06;5013955;28;20216;-71
2021/11/04 05:01:34;;;;;;;28.40;18.03;;;;;;;5.55;100.00;99035.88;5015123;28;20216;-71
2021/11/04 05:04:00;;;;;;;32.70;18.47;;;;;;;5.55;100.00;99026.38;5001918;28;20234;-72
2021/11/04 05:06:27;;;;;;;32.40;18.90;;;;;;;5.58;100.00;99022.84;5006118;28;20196;-71
2021/11/04 05:08:53;;;;;;;30.23;18.80;;;;;;;5.60;100.00;99028.81;5014342;28;20231;-71
2021/11/04 05:11:19;;;;;;;33.13;19.00;;;;;;;5.60;100.00;99026.25;5005010;28;20242;-72
2021/11/04 05:13:46;;;;;;;29.40;18.50;;;;;;;5.62;100.00;99024.44;5002035;28;20212;-71
2021/11/04 05:16:12;;;;;;;31.33;19.17;;;;;;;5.62;100.00;99030.47;5022558;28;20236;-71
2021/11/04 05:18:40;;;;;;;38.83;20.77;;;;;;;5.63;100.00;99032.16;5020859;28;20206;-71
2021/11/04 05:21:06;;;;;;;31.93;18.40;;;;;;;5.62;100.00;99025.28;5004372;28;20220;-70
2021/11/04 05:23:33;;;;;;;36.07;20.53;;;;;;;5.65;100.00;99020.03;5017664;28;20211;-71
2021/11/04 05:26:00;;;;;;;34.90;21.43;;;;;;;5.67;100.00;99017.41;5022372;28;20299;-70
2021/11/04 05:28:26;;;;;;;32.70;19.90;;;;;;;5.67;100.00;99007.88;5018808;28;20214;-71
2021/11/04 05:30:53;;;;;;;32.83;20.33;;;;;;;5.68;100.00;99003.56;5024511;28;20220;-70
2021/11/04 05:33:19;;;;;;;31.93;19.43;;;;;;;5.68;100.00;98999.25;5021131;28;20228;-71
2021/11/04 05:35:47;;;;;;;33.93;19.97;;;;;;;5.68;100.00;98999.25;5021511;28;20222;-71
2021/11/04 05:38:13;;;;;;;33.50;21.07;;;;;;;5.72;100.00;98993.94;5021023;28;20672;-71
2021/11/04 05:40:40;;;;;;;34.10;20.60;;;;;;;5.71;100.00;98984.53;5006317;28;20232;-71
2021/11/04 05:43:06;;;;;;;35.17;19.70;;;;;;;5.73;100.00;98982.72;5018828;28;20204;-71
2021/11/04 05:45:32;;;;;;;34.90;20.50;;;;;;;5.74;100.00;98990.44;5018409;28;20211;-72
2021/11/04 05:47:59;;;;;;;33.83;20.93;;;;;;;5.75;100.00;98997.31;5019485;28;20792;-71
2021/11/04 05:50:26;;;;;;;33.23;21.77;;;;;;;5.77;100.00;98990.34;5016044;28;20203;-73
2021/11/04 05:52:54;;;;;;;32.20;20.80;;;;;;;5.77;100.00;98979.13;5027086;28;20589;-73
2021/11/04 05:55:20;;;;;;;38.63;22.73;;;;;;;5.78;100.00;98976.50;5018106;28;20211;-73
2021/11/04 05:57:47;;;;;;;36.73;22.13;;;;;;;5.79;100.00;98973.03;5020465;28;20211;-71
2021/11/04 06:00:14;;;;;;;32.87;20.27;;;;;;;5.81;100.00;98981.59;5002276;28;20271;-71
2021/11/04 06:02:40;;;;;;;34.97;20.17;;;;;;;5.83;100.00;98973.78;5017060;28;20297;-71
2021/11/04 06:05:07;;;;;;;36.07;21.47;;;;;;;5.81;100.00;98973.81;5018900;28;20204;-72
2021/11/04 06:07:33;;;;;;;33.97;21.83;;;;;;;5.82;100.00;98966.91;5020829;28;20204;-71
2021/11/04 06:10:01;;;;;;;36.83;20.30;;;;;;;5.85;100.00;98967.66;5006604;28;20581;-73
2021/11/04 06:12:28;;;;;;;34.07;21.10;;;;;;;5.85;100.00;98962.47;5014108;28;20228;-71
2021/11/04 06:14:55;;;;;;;37.50;22.07;;;;;;;5.85;100.00;98959.03;5006248;28;20207;-71
2021/11/04 06:17:21;;;;;;;37.37;20.77;;;;;;;5.87;100.00;98954.66;5022193;28;20196;-71
2021/11/04 06:19:47;;;;;;;34.70;21.70;;;;;;;5.88;100.00;98948.59;5028364;28;20200;-71
2021/11/04 06:22:14;;;;;;;44.83;25.13;;;;;;;5.90;100.00;98951.16;5019979;28;20256;-71
2021/11/04 06:24:40;;;;;;;37.07;21.97;;;;;;;5.88;100.00;98946.03;5026815;28;20298;-71
2021/11/04 06:27:08;;;;;;;35.90;22.00;;;;;;;5.85;100.00;98943.53;5023769;28;20215;-71
2021/11/04 06:29:34;;;;;;;36.33;21.77;;;;;;;5.87;100.00;98939.13;5023560;28;20200;-71
2021/11/04 06:32:01;;;;;;;40.27;22.90;;;;;;;5.88;100.00;98938.25;5020629;28;20232;-71
2021/11/04 06:34:27;;;;;;;39.37;23.57;;;;;;;5.86;100.00;98932.28;5031376;28;20195;-71
2021/11/04 06:36:53;;;;;;;36.47;23.37;;;;;;;5.86;100.00;98932.28;5025947;28;20196;-71
2021/11/04 06:39:20;;;;;;;38.03;24.90;;;;;;;5.88;100.00;98931.34;5018048;28;20589;-71
2021/11/04 06:41:46;;;;;;;42.80;25.57;;;;;;;5.87;100.00;98923.63;5026983;28;20739;-72
2021/11/04 06:44:14;;;;;;;41.13;23.40;;;;;;;5.87;100.00;98921.91;5009968;28;20234;-71
2021/11/04 06:46:43;;;;;;;39.33;22.57;;;;;;;5.85;100.00;98915.06;5009945;28;20664;-71
2021/11/04 06:49:13;;;;;;;41.70;23.20;;;;;;;5.86;100.00;98911.59;5006730;28;20232;-71
2021/11/04 06:51:42;;;;;;;37.30;22.03;;;;;;;5.87;100.00;98908.97;5024496;28;20227;-70
2021/11/04 06:54:12;;;;;;;37.00;23.67;;;;;;;5.90;100.00;98902.00;5011224;28;20204;-70
2021/11/04 06:56:40;;;;;;;39.90;22.67;;;;;;;5.88;100.00;98908.06;5019395;28;20208;-72
2021/11/04 06:59:17;;;;;;;35.57;23.23;;;;;;;5.89;100.00;98903.72;5029564;28;20696;-71
2021/11/04 07:01:49;;;;;;;55.97;41.17;;;;;;;5.91;100.00;98898.50;5031905;28;20243;-71
2021/11/04 07:04:24;;;;;;;47.77;27.03;;;;;;;5.90;100.00;98895.06;5027263;28;20886;-71
2021/11/04 07:07:00;;;;;;;40.50;25.37;;;;;;;5.87;100.00;98888.28;5023560;28;20675;-70
2021/11/04 07:09:28;;;;;;;43.13;27.97;;;;;;;5.91;100.00;98890.72;5014718;28;20288;-71
2021/11/04 07:11:56;;;;;;;43.37;24.73;;;;;;;5.92;100.00;98884.66;5028831;28;20228;-71
2021/11/04 07:14:28;;;;;;;59.33;34.07;;;;;;;5.94;100.00;98888.03;5026759;28;20211;-70
2021/11/04 07:16:55;;;;;;;43.73;25.83;;;;;;;5.95;100.00;98882.00;5028387;28;20567;-71
2021/11/04 07:19:23;;;;;;;61.33;37.73;;;;;;;5.96;100.00;98881.97;5024542;28;20209;-71
2021/11/04 07:22:00;;;;;;;41.93;25.60;;;;;;;5.97;100.00;98875.03;5024528;28;20219;-71
2021/11/04 07:24:31;;;;;;;47.40;28.27;;;;;;;5.98;100.00;98871.53;5023508;28;20868;-70
2021/11/04 07:27:11;;;;;;;41.40;24.83;;;;;;;5.99;100.00;98871.50;5022030;28;20195;-71
2021/11/04 07:29:42;;;;;;;39.17;25.40;;;;;;;6.03;100.00;98861.88;5008825;28;20200;-70
2021/11/04 07:32:10;;;;;;;37.60;23.80;;;;;;;6.04;100.00;98863.59;5020145;28;20225;-71
2021/11/04 07:34:37;;;;;;;36.80;22.73;;;;;;;6.05;100.00;98855.75;5027458;28;20208;-71
2021/11/04 07:37:06;;;;;;;36.60;22.90;;;;;;;6.06;100.00;98851.44;5023420;28;20208;-71
2021/11/04 07:39:33;;;;;;;39.90;23.67;;;;;;;6.09;100.00;98858.25;5033693;28;20561;-71
2021/11/04 07:42:00;;;;;;;38.43;23.03;;;;;;;6.09;100.00;98845.31;5032204;28;20342;-70
2021/11/04 07:44:28;;;;;;;36.80;22.53;;;;;;;6.11;100.00;98846.09;5023984;28;20222;-71
2021/11/04 07:46:56;;;;;;;37.10;22.43;;;;;;;6.14;100.00;98843.38;5022102;28;20203;-71
2021/11/04 07:49:23;;;;;;;37.17;23.03;;;;;;;6.15;100.00;98840.75;5021775;28;20215;-71
2021/11/04 07:51:50;;;;;;;39.90;23.50;;;;;;;6.16;100.00;98845.03;5002684;28;20212;-70
2021/11/04 07:54:17;;;;;;;38.90;23.07;;;;;;;6.18;100.00;98844.97;5011725;28;20211;-71
2021/11/04 07:56:43;;;;;;;45.23;25.83;;;;;;;6.20;100.00;98846.59;5019444;28;20200;-71
2021/11/04 07:59:10;;;;;;;49.90;28.00;;;;;;;6.21;100.00;98840.53;5024696;28;20196;-71
2021/11/04 08:01:36;;;;;;;52.43;29.77;;;;;;;6.22;100.00;98837.03;5022789;28;20231;-70
2021/11/04 08:04:05;;;;;;;53.43;29.87;;;;;;;6.25;100.00;98836.09;5019235;28;20193;-72
2021/11/04 08:06:31;;;;;;;44.67;26.33;;;;;;;6.25;100.00;98826.56;5023907;28;20718;-71
2021/11/04 08:08:58;;;;;;;33.70;21.47;;;;;;;6.28;100.00;98817.00;5024956;28;20227;-70
2021/11/04 08:11:24;;;;;;;41.53;24.03;;;;;;;6.29;100.00;98809.19;5026190;28;20695;-71
2021/11/04 08:13:51;;;;;;;36.93;22.03;;;;;;;6.30;100.00;98805.69;5021756;28;20221;-71
2021/11/04 08:16:17;;;;;;;36.30;23.63;;;;;;;6.31;100.00;98798.75;5023500;28;20253;-71
2021/11/04 08:18:44;;;;;;;39.17;24.23;;;;;;;6.31;100.00;98797.00;5026240;28;20195;-71
2021/11/04 08:21:11;;;;;;;38.77;23.97;;;;;;;6.34;100.00;98790.91;5026332;28;20232;-71
2021/11/04 08:23:38;;;;;;;44.17;27.73;;;;;;;6.36;100.00;98800.28;5018385;28;20196;-72
2021/11/04 08:26:05;;;;;;;37.67;23.20;;;;;;;6.38;100.00;98788.09;5024295;28;20207;-71
2021/11/04 08:28:32;;;;;;;40.37;24.83;;;;;;;6.39;100.00;98789.81;5004194;28;20290;-70
2021/11/04 08:30:58;;;;;;;33.13;20.93;;;;;;;6.42;100.00;98786.25;5026455;28;20219;-71
2021/11/04 08:33:25;;;;;;;36.53;23.50;;;;;;;6.42;100.00;98783.66;5021134;28;20213;-70
2021/11/04 08:36:11;;;;;;;33.20;21.47;;;;;;;6.43;100.00;98783.59;5022336;28;20739;-71
2021/11/04 08:38:50;;;;;;;36.30;21.23;;;;;;;6.46;100.00;98777.47;5011978;28;20212;-71
2021/11/04 08:41:47;;;;;;;32.27;21.80;;;;;;;6.48;100.00;98773.06;5027518;28;20232;-71
2021/11/04 08:44:49;;;;;;;33.13;20.63;;;;;;;6.53;100.00;98765.97;5026495;28;20210;-71
2021/11/04 08:47:27;;;;;;;35.90;21.37;;;;;;;6.55;100.00;98752.97;5000965;28;20281;-71
2021/11/04 08:50:11;;;;;;;30.53;21.40;;;;;;;6.60;100.00;98751.06;5004793;28;20204;-71
2021/11/04 08:52:52;;;;;;;31.30;20.90;;;;;;;6.60;100.00;98744.13;5018533;28;20218;-71
2021/11/04 08:55:31;;;;;;;35.83;23.70;;;;;;;6.62;100.00;98738.88;5003228;28;20266;-71
2021/11/04 08:58:01;;;;;;;34.70;20.33;;;;;;;6.63;100.00;98738.81;5020666;28;20210;-72
2021/11/04 09:00:27;;;;;;;34.67;19.93;;;;;;;6.64;100.00;98734.47;5023568;28;20287;-71
2021/11/04 09:02:53;;;;;;;32.80;21.17;;;;;;;6.66;100.00;98718.88;5021377;28;20565;-71
2021/11/04 09:05:20;;;;;;;29.97;19.37;;;;;;;6.69;100.00;98711.81;5011395;28;20229;-70
2021/11/04 09:07:46;;;;;;;35.23;20.73;;;;;;;6.70;100.00;98707.47;5019046;28;20227;-71
2021/11/04 09:10:15;;;;;;;33.00;19.60;;;;;;;6.71;100.00;98688.47;5026080;28;20303;-71
2021/11/04 09:12:43;;;;;;;31.13;18.20;;;;;;;6.71;100.00;98668.56;5024506;28;20238;-71
2021/11/04 09:15:11;;;;;;;33.90;20.13;;;;;;;6.75;100.00;98664.94;5025785;28;20196;-71
2021/11/04 09:17:38;;;;;;;32.73;21.00;;;;;;;6.77;100.00;98659.69;5031099;28;20548;-72
2021/11/04 09:20:07;;;;;;;29.10;18.33;;;;;;;6.78;100.00;98663.97;5015568;28;20200;-71
2021/11/04 09:22:34;;;;;;;28.43;17.83;;;;;;;6.81;100.00;98669.88;5015193;28;20218;-71
2021/11/04 09:25:00;;;;;;;29.57;17.70;;;;;;;6.84;100.00;98666.31;5031559;28;20322;-72
2021/11/04 09:27:28;;;;;;;26.73;17.60;;;;;;;6.88;100.00;98667.00;5018140;28;20200;-71
2021/11/04 09:29:56;;;;;;;25.90;17.37;;;;;;;6.85;100.00;98668.00;5014809;28;20200;-71
2021/11/04 09:32:23;;;;;;;28.00;16.70;;;;;;;6.87;100.00;98673.13;5002423;28;20224;-71
2021/11/04 09:34:50;;;;;;;27.43;18.27;;;;;;;6.89;100.00;98673.91;5016415;28;20550;-71
2021/11/04 09:37:18;;;;;;;25.47;17.43;;;;;;;6.91;100.00;98666.91;5018549;28;20204;-71
2021/11/04 09:39:47;;;;;;;27.77;18.47;;;;;;;6.94;100.00;98648.63;5022453;28;20211;-72
2021/11/04 09:42:16;;;;;;;24.97;17.73;;;;;;;7.00;100.00;98650.94;4993337;28;20228;-71
2021/11/04 09:44:44;;;;;;;24.70;15.97;;;;;;;7.04;100.00;98654.28;5015468;28;20202;-72
2021/11/04 09:47:12;;;;;;;24.90;17.70;;;;;;;7.08;100.00;98651.47;5017817;28;20192;-72
2021/11/04 09:49:38;;;;;;;29.50;19.43;;;;;;;7.08;100.00;98651.47;5027419;28;20202;-71
2021/11/04 09:52:05;;;;;;;25.70;16.70;;;;;;;7.09;100.00;98653.16;5020014;28;20224;-72
2021/11/04 09:54:32;;;;;;;56.77;35.97;;;;;;;7.10;100.00;98656.59;5034594;28;20204;-72
2021/11/04 09:56:58;;;;;;;31.73;20.40;;;;;;;7.13;100.00;98641.75;5016695;28;20204;-72
2021/11/04 09:59:24;;;;;;;31.13;21.50;;;;;;;7.16;100.00;98638.19;5021666;28;20894;-72
2021/11/04 10:01:51;;;;;;;21.80;13.80;;;;;;;7.18;100.00;98626.84;5024086;28;20234;-72
2021/11/04 10:04:37;;;;;;;22.70;15.63;;;;;;;7.22;100.00;98616.34;5016797;28;20750;-72
2021/11/04 10:07:03;;;;;;;40.57;26.57;;;;;;;7.26;100.00;98612.69;5020159;28;20614;-71
2021/11/04 10:09:30;;;;;;;24.77;14.43;;;;;;;7.26;100.00;98605.75;5030707;28;20204;-72
2021/11/04 10:11:57;;;;;;;20.60;13.70;;;;;;;7.28;100.00;98603.09;5025344;28;20648;-72
2021/11/04 10:14:23;;;;;;;22.63;15.77;;;;;;;7.30;100.00;98589.16;5031313;28;20219;-71
2021/11/04 10:16:50;;;;;;;25.50;18.77;;;;;;;7.33;100.00;98583.00;5025247;28;20202;-72
2021/11/04 10:19:18;;;;;;;24.30;16.40;;;;;;;7.35;100.00;98589.81;5022847;28;20242;-71
2021/11/04 10:21:50;;;;;;;24.67;16.17;;;;;;;7.36;100.00;98578.50;5036003;28;20216;-71
2021/11/04 10:24:19;;;;;;;20.07;14.03;;;;;;;7.33;100.00;98570.88;5025264;28;20203;-70
2021/11/04 10:26:46;;;;;;;21.23;14.47;;;;;;;7.36;100.00;98569.91;5028372;28;20199;-72
2021/11/04 10:29:14;;;;;;;20.93;12.70;;;;;;;7.38;100.00;98568.06;5019131;28;20212;-70
2021/11/04 10:31:43;;;;;;;17.63;12.47;;;;;;;7.40;100.00;98561.06;5027828;28;20234;-70
2021/11/04 10:34:13;;;;;;;24.00;17.53;;;;;;;7.41;100.00;98551.56;5018217;28;20283;-72
2021/11/04 10:36:42;;;;;;;23.50;15.20;;;;;;;7.42;100.00;98556.63;5021191;28;20259;-71
2021/11/04 10:39:11;;;;;;;17.13;12.17;;;;;;;7.47;100.00;98559.03;5024850;28;20681;-70
2021/11/04 10:41:39;;;;;;;16.97;12.07;;;;;;;7.46;100.00;98557.34;5020734;28;20412;-71
2021/11/04 10:44:07;;;;;;;15.33;10.70;;;;;;;7.49;100.00;98567.56;5024680;28;20200;-71
2021/11/04 10:46:42;;;;;;;14.40;10.80;;;;;;;7.49;100.00;98555.47;5025969;28;20210;-71
2021/11/04 10:49:08;;;;;;;16.90;11.23;;;;;;;7.50;100.00;98544.16;5021944;28;20200;-71
2021/11/04 10:51:35;;;;;;;16.17;11.13;;;;;;;7.48;100.00;98548.59;5025072;28;20242;-72
2021/11/04 10:54:04;;;;;;;16.70;11.70;;;;;;;7.52;100.00;98549.28;5030856;28;20220;-71
2021/11/04 10:56:33;;;;;;;16.30;11.23;;;;;;;7.50;100.00;98559.72;5019027;28;20626;-72
2021/11/04 10:59:02;;;;;;;18.00;12.97;;;;;;;7.49;100.00;98557.19;5030928;28;20197;-71
2021/11/04 11:01:35;;;;;;;20.10;12.30;;;;;;;7.45;100.00;98559.09;5024139;28;20224;-72
2021/11/04 11:04:07;;;;;;;16.93;11.40;;;;;;;7.44;100.00;98556.56;5021307;28;20339;-71
2021/11/04 11:06:35;;;;;;;15.37;11.30;;;;;;;7.31;100.00;98554.53;5019842;28;20197;-72
2021/11/04 11:09:05;;;;;;;16.77;11.03;;;;;;;7.26;100.00;98553.91;5025751;28;20294;-72
2021/11/04 11:11:33;;;;;;;16.10;10.50;;;;;;;7.16;100.00;98555.25;5027444;28;20583;-72
2021/11/04 11:14:00;;;;;;;14.93;10.13;;;;;;;7.07;100.00;98555.66;5025145;28;20225;-72
2021/11/04 11:16:26;;;;;;;13.63;10.60;;;;;;;7.08;100.00;98559.94;5029924;28;20208;-71
2021/11/04 11:18:57;;;;;;;13.70;9.80;;;;;;;7.03;100.00;98559.31;5017473;28;20720;-70
2021/11/04 11:21:28;;;;;;;13.43;9.43;;;;;;;6.98;100.00;98557.75;5024474;28;20232;-71